Time;durP1;ratioP1;P1;durP2;ratioP2;P2;SDS_P1;SDS_P2;PMS_P1;PMS_P2;Temp;Humidity;BMP_temperature;BMP_pressure;BME280_temperature;BME280_humidity;BME280_pressure;Samples;Min_cycle;Max_cycle;Signal;HPM_P1;HPM_P2
2021/07/09 00:02:33;;;;;;;16.00;14.47;;;21.30;1.00;;;;;;5129795;27;20771;-62
2021/07/09 00:04:59;;;;;;;16.30;14.60;;;21.30;1.00;;;;;;5124384;27;20936;-63
2021/07/09 00:07:26;;;;;;;15.87;14.27;;;21.30;1.00;;;;;;5124486;27;20564;-63
2021/07/09 00:09:51;;;;;;;18.70;14.90;;;21.40;1.00;;;;;;5128975;27;20514;-63
2021/07/09 00:12:17;;;;;;;17.40;15.70;;;21.40;1.00;;;;;;5127117;27;20522;-63
2021/07/09 00:14:43;;;;;;;15.50;14.10;;;21.40;1.00;;;;;;5128161;27;20645;-63
2021/07/09 00:17:09;;;;;;;16.63;15.00;;;21.50;1.00;;;;;;5130818;27;20815;-61
2021/07/09 00:19:35;;;;;;;17.57;15.90;;;21.50;1.00;;;;;;5111494;27;20850;-64
2021/07/09 00:22:02;;;;;;;16.73;15.23;;;21.30;1.00;;;;;;5128629;27;20355;-62
2021/07/09 00:24:28;;;;;;;16.97;15.47;;;21.30;1.00;;;;;;5127955;27;20950;-62
2021/07/09 00:26:53;;;;;;;16.20;14.60;;;21.20;1.00;;;;;;5130882;27;20444;-63
2021/07/09 00:29:18;;;;;;;16.83;15.27;;;21.20;1.00;;;;;;5133800;27;20180;-63
2021/07/09 00:31:44;;;;;;;16.90;15.30;;;21.30;1.00;;;;;;5134216;27;20277;-63
2021/07/09 00:34:10;;;;;;;16.67;14.70;;;21.20;1.00;;;;;;5130804;27;20261;-63
2021/07/09 00:36:36;;;;;;;17.60;15.90;;;21.20;1.00;;;;;;5114970;27;20185;-64
2021/07/09 00:39:06;;;;;;;16.30;14.60;;;21.10;1.00;;;;;;5134034;27;20482;-63
2021/07/09 00:41:32;;;;;;;16.90;15.20;;;21.10;1.00;;;;;;5130119;27;20657;-63
2021/07/09 00:43:58;;;;;;;14.60;13.30;;;21.20;1.00;;;;;;5132524;27;20429;-63
2021/07/09 00:46:38;;;;;;;14.00;12.67;;;21.10;1.00;;;;;;5116048;27;20201;-63
2021/07/09 00:49:05;;;;;;;15.27;13.87;;;21.00;1.00;;;;;;5132880;27;20220;-63
2021/07/09 00:51:31;;;;;;;14.40;13.10;;;20.90;13.00;;;;;;5134129;27;20441;-62
2021/07/09 00:53:57;;;;;;;12.63;11.53;;;20.80;36.90;;;;;;5132904;27;20438;-62
2021/07/09 00:56:23;;;;;;;15.03;13.83;;;20.70;55.80;;;;;;5109905;27;20183;-62
2021/07/09 00:58:50;;;;;;;14.17;12.80;;;20.70;92.20;;;;;;5131630;27;20439;-63
2021/07/09 01:01:16;;;;;;;15.07;13.77;;;20.80;96.20;;;;;;5134563;27;20832;-63
2021/07/09 01:03:41;;;;;;;14.73;13.60;;;20.80;94.90;;;;;;5131567;27;20426;-62
2021/07/09 01:06:07;;;;;;;13.67;12.50;;;20.90;89.70;;;;;;5132885;27;20203;-62
2021/07/09 01:08:34;;;;;;;15.60;14.00;;;20.90;88.50;;;;;;5132347;27;20192;-63
2021/07/09 01:10:59;;;;;;;14.10;12.70;;;20.90;91.50;;;;;;5132879;27;20210;-62
2021/07/09 01:13:25;;;;;;;13.77;12.40;;;20.90;88.30;;;;;;5130871;27;20487;-62
2021/07/09 01:15:51;;;;;;;14.67;13.27;;;20.80;88.10;;;;;;5133363;27;20409;-63
2021/07/09 01:18:16;;;;;;;13.97;12.77;;;20.90;91.80;;;;;;5133457;27;20219;-63
2021/07/09 01:20:42;;;;;;;13.20;12.10;;;20.80;92.80;;;;;;5130607;27;20196;-63
2021/07/09 01:23:09;;;;;;;14.50;13.30;;;20.90;90.90;;;;;;5111751;27;20181;-63
2021/07/09 01:25:35;;;;;;;14.77;13.57;;;21.00;85.70;;;;;;5131251;27;20209;-62
2021/07/09 01:28:07;;;;;;;15.60;14.10;;;20.90;85.80;;;;;;5132716;27;20447;-62
2021/07/09 01:30:34;;;;;;;15.10;13.80;;;20.90;90.20;;;;;;5132609;27;20450;-62
2021/07/09 01:33:00;;;;;;;14.60;13.30;;;20.90;87.80;;;;;;5132901;27;20529;-62
2021/07/09 01:35:27;;;;;;;14.53;13.30;;;20.90;94.30;;;;;;5132413;27;20620;-61
2021/07/09 01:38:06;;;;;;;15.87;14.37;;;20.80;95.50;;;;;;5132325;27;20276;-63
2021/07/09 01:40:33;;;;;;;14.63;13.13;;;20.80;99.90;;;;;;5129691;27;20464;-62
2021/07/09 01:42:59;;;;;;;14.27;12.93;;;20.80;99.90;;;;;;5132255;27;20409;-62
2021/07/09 01:45:25;;;;;;;14.63;13.43;;;20.80;99.90;;;;;;5128203;27;20461;-61
2021/07/09 01:47:53;;;;;;;15.70;14.30;;;20.90;99.00;;;;;;5132617;27;20453;-62
2021/07/09 01:50:21;;;;;;;14.90;13.60;;;20.90;96.50;;;;;;5132327;27;20454;-63
2021/07/09 01:52:47;;;;;;;14.60;13.30;;;20.90;99.90;;;;;;5132341;27;20431;-63
2021/07/09 01:55:14;;;;;;;12.07;11.07;;;20.80;99.90;;;;;;5132006;27;20447;-63
2021/07/09 01:57:41;;;;;;;13.40;12.23;;;20.80;99.90;;;;;;5131239;27;20186;-62
2021/07/09 02:00:09;;;;;;;14.27;12.93;;;20.80;99.90;;;;;;5112849;27;20853;-63
2021/07/09 02:02:36;;;;;;;14.37;13.17;;;20.80;99.90;;;;;;5131917;27;21022;-62
2021/07/09 02:05:04;;;;;;;14.47;13.27;;;20.80;99.90;;;;;;5130442;27;20466;-62
2021/07/09 02:07:29;;;;;;;13.80;12.50;;;20.90;99.90;;;;;;5131510;27;20935;-62
2021/07/09 02:09:55;;;;;;;12.57;11.57;;;20.90;99.90;;;;;;5114151;27;20452;-63
2021/07/09 02:12:23;;;;;;;12.97;11.87;;;20.90;99.90;;;;;;5136115;27;20186;-62
2021/07/09 02:14:49;;;;;;;13.00;11.90;;;20.80;99.90;;;;;;5112902;27;20181;-62
2021/07/09 02:17:17;;;;;;;12.17;10.90;;;20.90;99.90;;;;;;5129411;27;20436;-62
2021/07/09 02:19:43;;;;;;;13.50;12.40;;;20.80;99.90;;;;;;5132417;27;20445;-63
2021/07/09 02:22:11;;;;;;;11.83;10.90;;;20.80;99.90;;;;;;5106173;27;20435;-63
2021/07/09 02:24:39;;;;;;;13.57;12.50;;;20.80;99.90;;;;;;5124950;27;20454;-63
2021/07/09 02:27:05;;;;;;;11.50;10.50;;;20.90;99.90;;;;;;5128717;27;20465;-62
2021/07/09 02:29:32;;;;;;;11.40;10.40;;;21.00;99.90;;;;;;5131995;27;20795;-62
2021/07/09 02:31:59;;;;;;;11.40;10.40;;;20.90;99.90;;;;;;5128713;27;20410;-63
2021/07/09 02:34:26;;;;;;;11.87;10.97;;;20.90;99.90;;;;;;5129799;27;20535;-62
2021/07/09 02:36:52;;;;;;;12.33;11.23;;;21.00;99.90;;;;;;5113574;27;20439;-63
2021/07/09 02:39:17;;;;;;;13.23;11.83;;;20.90;99.90;;;;;;5127716;27;20601;-61
2021/07/09 02:41:43;;;;;;;12.13;11.13;;;20.90;99.90;;;;;;5113474;27;20185;-63
2021/07/09 02:44:08;;;;;;;13.17;12.13;;;20.90;99.90;;;;;;5131365;27;20220;-64
2021/07/09 02:46:34;;;;;;;12.87;11.70;;;20.90;99.90;;;;;;5122588;27;20224;-63
2021/07/09 02:48:59;;;;;;;11.43;10.53;;;20.90;99.90;;;;;;5107803;27;20213;-63
2021/07/09 02:51:25;;;;;;;11.57;10.63;;;20.90;99.90;;;;;;5127215;27;20190;-63
2021/07/09 02:53:51;;;;;;;12.20;11.23;;;20.90;99.90;;;;;;5129205;27;20193;-62
2021/07/09 02:56:16;;;;;;;12.20;11.20;;;20.90;99.90;;;;;;5102578;28;20500;-63
2021/07/09 02:58:42;;;;;;;13.03;12.03;;;20.80;99.90;;;;;;5129067;27;20189;-62
2021/07/09 03:01:07;;;;;;;13.00;11.90;;;20.80;99.90;;;;;;5125479;27;20176;-63
2021/07/09 03:03:33;;;;;;;13.93;11.70;;;20.70;99.90;;;;;;5119636;27;20205;-63
2021/07/09 03:05:58;;;;;;;13.70;11.43;;;20.70;99.90;;;;;;5129754;27;20218;-63
2021/07/09 03:08:24;;;;;;;12.83;11.80;;;20.70;99.90;;;;;;5131763;27;20200;-63
2021/07/09 03:10:49;;;;;;;11.77;10.77;;;20.70;99.90;;;;;;5124591;27;20579;-63
2021/07/09 03:13:15;;;;;;;12.87;11.77;;;20.60;99.90;;;;;;5124545;27;20180;-63
2021/07/09 03:15:40;;;;;;;11.77;10.77;;;20.60;99.90;;;;;;5116174;27;20204;-63
2021/07/09 03:18:06;;;;;;;12.50;11.30;;;20.60;99.90;;;;;;5125834;27;20189;-64
2021/07/09 03:20:32;;;;;;;11.97;10.87;;;20.50;99.90;;;;;;5131494;27;20196;-63
2021/07/09 03:22:57;;;;;;;12.60;11.30;;;20.50;99.90;;;;;;5130766;27;20336;-63
2021/07/09 03:25:23;;;;;;;11.43;10.23;;;20.50;99.90;;;;;;5135083;27;20201;-62
2021/07/09 03:27:48;;;;;;;11.90;10.77;;;20.50;99.90;;;;;;5134788;27;20237;-61
2021/07/09 03:30:14;;;;;;;10.60;9.50;;;20.50;99.90;;;;;;5130596;27;20186;-63
2021/07/09 03:32:40;;;;;;;7.30;6.70;;;20.50;99.90;;;;;;5125639;27;20174;-62
2021/07/09 03:35:07;;;;;;;7.70;7.10;;;20.40;99.90;;;;;;5129345;27;20194;-63
2021/07/09 03:37:33;;;;;;;6.00;5.60;;;20.20;99.90;;;;;;5131223;27;20208;-63
2021/07/09 03:39:59;;;;;;;7.20;6.60;;;20.10;99.90;;;;;;5129089;27;20956;-63
2021/07/09 03:42:24;;;;;;;6.00;5.50;;;20.00;99.90;;;;;;5123358;27;20185;-63
2021/07/09 03:44:50;;;;;;;6.13;5.60;;;20.10;99.90;;;;;;5128316;27;20736;-62
2021/07/09 03:47:15;;;;;;;5.67;5.27;;;20.40;99.90;;;;;;5123686;27;20199;-63
2021/07/09 03:49:41;;;;;;;5.47;4.97;;;20.50;99.90;;;;;;5109349;28;20261;-63
2021/07/09 03:52:06;;;;;;;6.67;6.17;;;20.50;99.90;;;;;;5110229;28;20188;-63
2021/07/09 03:54:33;;;;;;;4.93;4.40;;;20.60;99.90;;;;;;5107499;28;20278;-62
2021/07/09 03:56:59;;;;;;;4.57;4.27;;;20.70;99.90;;;;;;5104165;28;20261;-62
2021/07/09 03:59:24;;;;;;;4.83;4.30;;;20.80;99.90;;;;;;5106899;28;20989;-61
2021/07/09 04:01:50;;;;;;;4.53;4.13;;;20.80;99.90;;;;;;5110940;28;20194;-62
2021/07/09 04:04:15;;;;;;;5.07;4.60;;;20.80;99.90;;;;;;5113889;28;20238;-61
2021/07/09 04:06:41;;;;;;;4.50;4.20;;;20.90;99.90;;;;;;5110004;28;20186;-63
2021/07/09 04:09:06;;;;;;;4.63;4.30;;;20.90;99.90;;;;;;5112892;28;20189;-62
2021/07/09 04:11:32;;;;;;;4.83;4.50;;;20.90;99.90;;;;;;5112028;28;20178;-61
2021/07/09 04:13:58;;;;;;;4.10;3.80;;;20.90;99.90;;;;;;5112916;28;20265;-62
2021/07/09 04:16:23;;;;;;;5.87;4.90;;;20.80;99.90;;;;;;5113378;27;20287;-62
2021/07/09 04:18:49;;;;;;;4.60;4.30;;;20.80;99.90;;;;;;5110632;28;20169;-62
2021/07/09 04:21:14;;;;;;;4.30;4.00;;;20.80;99.90;;;;;;5112135;28;20217;-63
2021/07/09 04:23:40;;;;;;;3.87;3.60;;;20.70;99.90;;;;;;5113181;28;20201;-62
2021/07/09 04:26:05;;;;;;;3.70;3.50;;;20.80;99.90;;;;;;5108933;28;20240;-62
2021/07/09 04:28:31;;;;;;;5.43;4.00;;;20.80;99.90;;;;;;5105469;28;20199;-62
2021/07/09 04:30:56;;;;;;;3.93;3.50;;;20.80;99.90;;;;;;5113349;28;20192;-63
2021/07/09 04:33:23;;;;;;;4.23;3.93;;;20.80;99.90;;;;;;5109670;28;20181;-64
2021/07/09 04:35:50;;;;;;;4.03;3.53;;;20.80;99.90;;;;;;5114378;28;20243;-63
2021/07/09 04:38:16;;;;;;;4.43;4.13;;;20.80;99.90;;;;;;5110955;28;20435;-63
2021/07/09 04:40:42;;;;;;;4.90;4.50;;;20.80;99.90;;;;;;5111365;28;20446;-63
2021/07/09 04:43:08;;;;;;;4.93;4.63;;;21.00;99.90;;;;;;5111829;28;20525;-60
2021/07/09 04:45:34;;;;;;;5.03;4.70;;;21.00;99.90;;;;;;5109054;27;20223;-61
2021/07/09 04:47:59;;;;;;;4.13;3.83;;;21.00;99.90;;;;;;5107562;27;20232;-60
2021/07/09 04:50:25;;;;;;;5.00;4.63;;;21.10;99.90;;;;;;5131846;27;20193;-61
2021/07/09 04:52:51;;;;;;;5.80;5.40;;;21.20;99.90;;;;;;5130885;27;20261;-60
2021/07/09 04:55:16;;;;;;;5.13;4.73;;;22.90;99.90;;;;;;5133899;27;20510;-60
2021/07/09 04:57:42;;;;;;;4.47;4.07;;;21.30;99.90;;;;;;5132267;27;20679;-61
2021/07/09 05:00:09;;;;;;;4.37;3.97;;;21.20;99.90;;;;;;5133700;27;20184;-60
2021/07/09 05:02:38;;;;;;;4.23;3.93;;;21.20;99.90;;;;;;5130098;27;20189;-60
2021/07/09 05:05:06;;;;;;;4.73;4.43;;;21.30;99.90;;;;;;5132754;27;20494;-60
2021/07/09 05:07:32;;;;;;;5.30;4.90;;;21.30;99.90;;;;;;5134223;27;20442;-60
2021/07/09 05:09:57;;;;;;;4.53;4.23;;;21.30;99.90;;;;;;5130399;27;20536;-61
2021/07/09 05:12:23;;;;;;;5.50;5.00;;;22.00;99.90;;;;;;5129032;27;20209;-61
2021/07/09 05:14:48;;;;;;;4.80;4.43;;;21.10;99.90;;;;;;5132301;27;20234;-62
2021/07/09 05:17:14;;;;;;;5.07;4.67;;;21.10;99.90;;;;;;5130735;27;20176;-61
2021/07/09 05:19:40;;;;;;;4.23;3.93;;;21.10;99.90;;;;;;5128790;27;20626;-61
2021/07/09 05:22:06;;;;;;;4.23;3.93;;;21.20;99.90;;;;;;5130737;27;20377;-60
2021/07/09 05:24:31;;;;;;;4.40;4.10;;;21.20;99.90;;;;;;5129653;27;20377;-61
2021/07/09 05:26:57;;;;;;;5.77;5.27;;;21.30;99.90;;;;;;5132780;27;20518;-61
2021/07/09 05:29:22;;;;;;;6.57;6.07;;;21.40;99.90;;;;;;5131616;27;20304;-60
2021/07/09 05:31:48;;;;;;;6.00;5.60;;;20.90;99.90;;;;;;5133018;27;20174;-60
2021/07/09 05:34:14;;;;;;;6.40;5.97;;;21.10;99.90;;;;;;5125978;27;20281;-60
2021/07/09 05:36:40;;;;;;;6.37;5.87;;;21.10;99.90;;;;;;5131701;27;20234;-61
2021/07/09 05:39:06;;;;;;;6.83;6.23;;;21.00;99.90;;;;;;5130811;27;20200;-61
2021/07/09 05:41:32;;;;;;;7.80;6.70;;;20.90;99.90;;;;;;5131430;27;20919;-60
2021/07/09 05:43:57;;;;;;;7.20;6.67;;;20.80;99.90;;;;;;5128327;27;20181;-62
2021/07/09 05:46:23;;;;;;;8.40;7.80;;;20.90;99.90;;;;;;5133204;27;20714;-61
2021/07/09 05:48:48;;;;;;;9.33;8.63;;;20.90;99.90;;;;;;5131553;27;20260;-62
2021/07/09 05:51:14;;;;;;;10.50;8.73;;;20.80;99.90;;;;;;5127680;27;20185;-61
2021/07/09 05:53:39;;;;;;;8.87;8.07;;;20.80;99.90;;;;;;5133433;27;20177;-62
2021/07/09 05:56:05;;;;;;;11.90;10.60;;;20.80;99.90;;;;;;5130938;27;20284;-60
2021/07/09 05:58:31;;;;;;;12.10;10.90;;;20.90;99.90;;;;;;5131017;27;20186;-60
2021/07/09 06:00:56;;;;;;;11.30;10.40;;;20.80;99.90;;;;;;5130559;27;20183;-61
2021/07/09 06:03:22;;;;;;;11.27;10.10;;;20.90;99.90;;;;;;5124099;27;20178;-62
2021/07/09 06:05:47;;;;;;;10.40;9.37;;;21.00;99.90;;;;;;5131463;27;20574;-62
2021/07/09 06:08:13;;;;;;;9.40;8.50;;;21.00;99.90;;;;;;5149269;27;20189;-61
2021/07/09 06:10:38;;;;;;;9.67;8.80;;;21.10;99.90;;;;;;5127135;27;20662;-61
2021/07/09 06:13:04;;;;;;;8.17;7.57;;;21.30;99.90;;;;;;5131611;27;20260;-62
2021/07/09 06:15:30;;;;;;;9.17;8.33;;;21.40;99.90;;;;;;5132643;27;20600;-62
2021/07/09 06:17:56;;;;;;;8.77;7.97;;;21.50;99.90;;;;;;5126837;27;20494;-61
2021/07/09 06:20:22;;;;;;;7.93;7.33;;;21.70;99.90;;;;;;5125813;27;20438;-61
2021/07/09 06:22:48;;;;;;;8.27;7.60;;;21.70;99.90;;;;;;5132132;27;20185;-61
2021/07/09 06:25:14;;;;;;;9.00;8.30;;;21.80;99.90;;;;;;5111758;27;20228;-60
2021/07/09 06:27:41;;;;;;;8.70;7.77;;;21.90;99.90;;;;;;5132189;27;20527;-61
2021/07/09 06:30:08;;;;;;;8.30;7.50;;;21.90;99.90;;;;;;5137220;27;20909;-61
2021/07/09 06:32:34;;;;;;;9.10;8.20;;;22.10;99.90;;;;;;5127119;27;20440;-62
2021/07/09 06:34:59;;;;;;;10.23;9.33;;;22.20;99.90;;;;;;5131660;27;20905;-62
2021/07/09 06:37:25;;;;;;;10.30;9.40;;;22.20;99.90;;;;;;5130540;27;20543;-61
2021/07/09 06:39:51;;;;;;;10.17;9.27;;;22.30;99.90;;;;;;5131231;27;20186;-61
2021/07/09 06:45:31;;;;;;;11.00;10.00;;;22.40;99.10;;;;;;5102211;27;20466;-61
2021/07/09 06:47:57;;;;;;;10.93;9.93;;;22.50;82.70;;;;;;5124331;27;20876;-60
2021/07/09 06:50:22;;;;;;;10.30;9.40;;;22.60;64.90;;;;;;5129588;27;20277;-61
2021/07/09 06:52:48;;;;;;;9.00;8.30;;;22.60;48.20;;;;;;5131435;27;20214;-61
2021/07/09 06:55:15;;;;;;;9.30;8.60;;;22.70;39.70;;;;;;5127002;27;20193;-62
2021/07/09 06:57:46;;;;;;;9.17;8.37;;;22.80;35.00;;;;;;5131304;27;20177;-60
2021/07/09 07:00:14;;;;;;;9.20;8.40;;;22.90;24.00;;;;;;5131240;27;20884;-61
2021/07/09 07:02:39;;;;;;;8.43;7.80;;;23.10;4.80;;;;;;5128088;27;20456;-60
2021/07/09 07:05:05;;;;;;;8.17;7.47;;;23.10;1.00;;;;;;5131293;27;20502;-62
2021/07/09 07:07:31;;;;;;;7.13;6.53;;;23.30;1.00;;;;;;5129307;27;20193;-63
2021/07/09 07:09:56;;;;;;;10.57;8.67;;;23.40;1.00;;;;;;5129505;27;20435;-60
2021/07/09 07:12:22;;;;;;;9.80;8.10;;;23.50;1.00;;;;;;5107998;27;20178;-61
2021/07/09 07:14:48;;;;;;;8.53;7.83;;;23.60;1.00;;;;;;5124772;27;20181;-61
2021/07/09 07:17:14;;;;;;;8.73;7.97;;;23.60;1.00;;;;;;5129278;27;20273;-61
2021/07/09 07:19:40;;;;;;;8.50;7.57;;;23.60;1.00;;;;;;5125156;27;20265;-61
2021/07/09 07:22:05;;;;;;;8.87;7.97;;;23.60;1.00;;;;;;5131721;27;20655;-61
2021/07/09 07:24:31;;;;;;;7.40;6.70;;;23.60;1.00;;;;;;5109955;27;20204;-60
2021/07/09 07:26:58;;;;;;;8.00;7.10;;;23.60;1.00;;;;;;5125418;27;20178;-61
2021/07/09 07:29:24;;;;;;;7.67;6.90;;;23.70;1.00;;;;;;5131747;27;20220;-62
2021/07/09 07:31:51;;;;;;;10.80;6.83;;;23.80;1.00;;;;;;5124568;27;20405;-61
2021/07/09 07:34:16;;;;;;;8.30;7.50;;;23.70;1.00;;;;;;5125594;27;20406;-61
2021/07/09 07:36:42;;;;;;;8.50;7.80;;;23.80;1.00;;;;;;5127502;27;20432;-62
2021/07/09 07:39:07;;;;;;;7.83;7.23;;;23.80;1.00;;;;;;5132015;27;20191;-62
2021/07/09 07:41:33;;;;;;;8.73;7.83;;;23.70;1.00;;;;;;5127910;27;20569;-61
2021/07/09 07:44:00;;;;;;;9.37;8.57;;;23.60;1.00;;;;;;5130515;27;20189;-62
2021/07/09 07:46:27;;;;;;;7.70;7.00;;;23.60;1.00;;;;;;5124459;27;20438;-62
2021/07/09 07:48:52;;;;;;;8.13;7.43;;;23.70;1.00;;;;;;5121472;27;20482;-61
2021/07/09 07:51:19;;;;;;;7.27;6.77;;;23.90;1.00;;;;;;5131408;27;20413;-62
2021/07/09 07:53:45;;;;;;;7.80;6.63;;;24.20;1.00;;;;;;5124577;27;20785;-61
2021/07/09 07:56:11;;;;;;;7.33;6.73;;;24.80;1.00;;;;;;5122847;27;20359;-61
2021/07/09 07:58:37;;;;;;;7.90;7.20;;;25.10;1.00;;;;;;5112069;27;20276;-61
2021/07/09 08:01:03;;;;;;;8.70;8.00;;;24.90;1.00;;;;;;5128711;27;20482;-62
2021/07/09 08:03:29;;;;;;;8.20;7.50;;;24.60;1.00;;;;;;5142533;27;20838;-62
2021/07/09 08:05:54;;;;;;;8.83;8.03;;;24.40;1.00;;;;;;5134048;27;20553;-61
2021/07/09 08:08:20;;;;;;;9.77;8.87;;;24.10;1.00;;;;;;5121312;27;20182;-62
2021/07/09 08:10:45;;;;;;;11.63;10.47;;;24.00;1.00;;;;;;5129244;27;20181;-62
2021/07/09 08:13:11;;;;;;;11.87;10.80;;;24.00;1.00;;;;;;5127663;27;20173;-61
2021/07/09 08:15:37;;;;;;;14.03;12.73;;;24.00;1.00;;;;;;5130420;27;20217;-62
2021/07/09 08:18:02;;;;;;;12.50;11.30;;;24.00;1.00;;;;;;5125303;27;20185;-61
2021/07/09 08:23:54;;;;;;;13.60;12.20;;;24.20;1.00;;;;;;5080811;27;20201;-62
2021/07/09 08:26:21;;;;;;;13.53;12.13;;;24.50;1.00;;;;;;5147808;27;20467;-61
2021/07/09 08:28:46;;;;;;;11.20;10.20;;;24.90;1.00;;;;;;5114219;27;20709;-62
2021/07/09 08:31:12;;;;;;;11.03;9.93;;;24.90;1.00;;;;;;5131204;27;20509;-60
2021/07/09 08:33:37;;;;;;;10.30;9.30;;;25.10;1.00;;;;;;5112957;28;20234;-61
2021/07/09 08:36:03;;;;;;;9.63;8.73;;;25.40;1.00;;;;;;5111802;27;20537;-61
2021/07/09 08:38:29;;;;;;;8.40;7.70;;;25.70;1.00;;;;;;5100981;28;20185;-61
2021/07/09 08:40:54;;;;;;;11.03;10.03;;;25.70;1.00;;;;;;5111779;27;20310;-61
2021/07/09 08:43:20;;;;;;;9.57;7.20;;;25.80;1.00;;;;;;5131174;27;20230;-61
2021/07/09 08:45:45;;;;;;;13.77;7.70;;;26.10;1.00;;;;;;5130188;27;20216;-61
2021/07/09 08:48:14;;;;;;;10.27;8.80;;;26.10;1.00;;;;;;5129408;27;20574;-63
2021/07/09 08:50:40;;;;;;;12.30;7.10;;;26.10;1.00;;;;;;5142585;27;20276;-62
2021/07/09 08:53:06;;;;;;;11.40;8.07;;;26.20;1.00;;;;;;5130574;27;20499;-61
2021/07/09 08:55:31;;;;;;;17.60;7.30;;;26.50;1.00;;;;;;5134881;27;20410;-61
2021/07/09 08:57:57;;;;;;;13.67;7.63;;;26.50;1.00;;;;;;5134648;27;20186;-60
2021/07/09 09:00:31;;;;;;;8.07;7.40;;;26.40;1.00;;;;;;5134685;27;20671;-62
2021/07/09 09:02:57;;;;;;;7.77;6.23;;;26.40;1.00;;;;;;5134635;27;20225;-63
2021/07/09 09:05:25;;;;;;;11.73;7.50;;;26.30;1.00;;;;;;5134488;27;20462;-62
2021/07/09 09:08:05;;;;;;;7.83;6.93;;;26.10;1.00;;;;;;5134677;27;20177;-61
2021/07/09 09:10:42;;;;;;;7.27;6.30;;;26.10;1.00;;;;;;5134569;27;20509;-62
2021/07/09 09:13:11;;;;;;;7.83;7.03;;;26.20;1.00;;;;;;5132098;27;20409;-62
2021/07/09 09:15:37;;;;;;;9.33;8.40;;;26.30;1.00;;;;;;5134469;27;20453;-61
2021/07/09 09:18:22;;;;;;;17.70;9.30;;;26.20;1.00;;;;;;5134276;27;20441;-61
2021/07/09 09:21:03;;;;;;;9.20;7.83;;;26.40;1.00;;;;;;5116082;27;20435;-63
2021/07/09 09:23:31;;;;;;;10.60;8.30;;;26.10;1.00;;;;;;5134254;27;20521;-61
2021/07/09 09:25:57;;;;;;;10.07;9.17;;;26.20;1.00;;;;;;5134571;27;20425;-61
2021/07/09 09:28:23;;;;;;;7.60;7.00;;;26.50;1.00;;;;;;5132043;27;20410;-61
2021/07/09 09:30:55;;;;;;;8.33;7.50;;;26.60;1.00;;;;;;5134226;27;20401;-62
2021/07/09 09:33:22;;;;;;;9.43;6.60;;;27.00;1.00;;;;;;5115253;27;20272;-63
2021/07/09 09:35:54;;;;;;;5.70;5.30;;;27.40;1.00;;;;;;5134116;27;20483;-62
2021/07/09 09:38:28;;;;;;;15.00;7.40;;;27.80;1.00;;;;;;5133795;27;20427;-60
2021/07/09 09:40:55;;;;;;;6.80;6.10;;;27.70;1.00;;;;;;5135707;27;20413;-61
2021/07/09 09:50:19;;;;;;;9.30;6.37;;;27.70;1.00;;;;;;4944306;28;20452;-62
2021/07/09 09:52:53;;;;;;;5.27;4.87;;;27.80;1.00;;;;;;5090385;28;20423;-61
2021/07/09 09:55:23;;;;;;;6.23;5.67;;;27.90;1.00;;;;;;5092625;28;20417;-62
2021/07/09 09:58:07;;;;;;;4.93;4.50;;;28.00;1.00;;;;;;5092711;28;20469;-62
2021/07/09 10:00:33;;;;;;;5.20;4.80;;;28.40;1.00;;;;;;5092346;28;20420;-62
2021/07/09 10:02:58;;;;;;;5.10;4.60;;;28.60;1.00;;;;;;5092631;28;20998;-61
2021/07/09 10:05:24;;;;;;;5.20;4.80;;;28.80;1.00;;;;;;5092414;28;20682;-63
2021/07/09 10:07:52;;;;;;;6.93;5.43;;;28.70;1.00;;;;;;5091180;28;20244;-63
2021/07/09 10:10:19;;;;;;;6.60;6.10;;;28.30;1.00;;;;;;5088823;28;20174;-62
2021/07/09 10:12:48;;;;;;;6.30;5.80;;;28.20;1.00;;;;;;5092068;28;20447;-61
2021/07/09 10:15:14;;;;;;;7.67;6.97;;;28.10;1.00;;;;;;5091364;28;20522;-62
2021/07/09 10:17:40;;;;;;;6.83;6.20;;;27.80;1.00;;;;;;5092152;28;20760;-62
2021/07/09 10:20:06;;;;;;;6.57;6.07;;;27.70;1.00;;;;;;5085826;28;20436;-64
2021/07/09 10:22:32;;;;;;;16.10;10.23;;;27.60;1.00;;;;;;5098128;28;20495;-62
2021/07/09 10:25:01;;;;;;;7.20;6.60;;;27.80;1.00;;;;;;5097471;28;20438;-62
2021/07/09 10:27:27;;;;;;;64.33;16.00;;;27.70;1.00;;;;;;5095178;28;20181;-60
2021/07/09 10:29:54;;;;;;;9.90;8.90;;;27.50;1.00;;;;;;5085955;28;20418;-62
2021/07/09 10:32:37;;;;;;;10.30;7.67;;;27.40;1.00;;;;;;5092127;28;20440;-61
2021/07/09 10:35:30;;;;;;;10.77;9.40;;;27.10;1.00;;;;;;5090394;28;20503;-61
2021/07/09 10:38:19;;;;;;;8.50;7.87;;;26.70;1.00;;;;;;5091763;28;20524;-61
2021/07/09 10:40:45;;;;;;;9.07;8.37;;;26.60;1.00;;;;;;5091598;28;20804;-62
2021/07/09 10:43:11;;;;;;;10.90;9.90;;;26.40;1.00;;;;;;5091849;28;20437;-62
2021/07/09 10:45:38;;;;;;;22.60;11.07;;;26.10;1.00;;;;;;5091433;28;20500;-62
2021/07/09 10:48:17;;;;;;;11.37;10.27;;;26.10;1.00;;;;;;5093207;27;20634;-62
2021/07/09 10:50:48;;;;;;;9.97;8.97;;;26.30;1.00;;;;;;5132196;27;20443;-61
2021/07/09 10:53:14;;;;;;;9.10;7.83;;;26.90;1.00;;;;;;5132552;27;20433;-62
2021/07/09 10:55:48;;;;;;;7.80;7.10;;;27.00;1.00;;;;;;5141041;27;20413;-61
2021/07/09 10:58:25;;;;;;;7.40;6.80;;;26.50;1.00;;;;;;5153150;27;20533;-61
2021/07/09 11:00:54;;;;;;;7.93;7.30;;;26.10;1.00;;;;;;5133961;27;20409;-62
2021/07/09 11:03:27;;;;;;;6.97;6.37;;;25.60;1.00;;;;;;5132159;27;20777;-61
2021/07/09 11:05:54;;;;;;;7.97;7.20;;;25.20;1.00;;;;;;5131878;27;20451;-60
2021/07/09 11:08:36;;;;;;;16.00;14.57;;;24.80;1.00;;;;;;5132199;27;20409;-60
2021/07/09 11:11:14;;;;;;;7.40;6.70;;;24.70;1.00;;;;;;5134705;27;20413;-61
2021/07/09 11:13:40;;;;;;;7.20;6.50;;;25.10;1.00;;;;;;5111821;27;20885;-62
2021/07/09 11:16:24;;;;;;;7.80;7.13;;;25.70;1.00;;;;;;5125407;27;20547;-62
2021/07/09 11:19:07;;;;;;;5.90;4.80;;;26.30;1.00;;;;;;5106651;27;20206;-61
2021/07/09 11:21:33;;;;;;;4.50;4.20;;;26.50;1.00;;;;;;5129762;27;20417;-61
2021/07/09 11:24:17;;;;;;;4.60;4.20;;;26.80;1.00;;;;;;5130704;27;20534;-61
2021/07/09 11:27:10;;;;;;;4.70;4.30;;;26.90;1.00;;;;;;5130779;27;20514;-60
2021/07/09 11:29:37;;;;;;;3.93;3.63;;;27.20;1.00;;;;;;5126459;27;20421;-61
2021/07/09 11:32:14;;;;;;;3.40;3.20;;;27.40;1.00;;;;;;5129610;27;20441;-63
2021/07/09 11:34:41;;;;;;;5.33;3.77;;;27.40;1.00;;;;;;5108821;27;20533;-62
2021/07/09 11:37:10;;;;;;;3.90;3.60;;;27.10;1.00;;;;;;5130027;27;20505;-62
2021/07/09 11:39:38;;;;;;;3.80;3.50;;;26.80;1.00;;;;;;5130335;27;20434;-60
2021/07/09 11:42:09;;;;;;;4.20;3.80;;;26.70;1.00;;;;;;5131315;27;20893;-62
2021/07/09 11:44:56;;;;;;;4.53;3.07;;;26.70;1.00;;;;;;5132608;27;20439;-62
2021/07/09 11:47:25;;;;;;;3.80;3.00;;;26.50;1.00;;;;;;5136716;27;20453;-62
2021/07/09 11:49:53;;;;;;;5.37;3.20;;;26.80;1.00;;;;;;5142816;27;20658;-61
2021/07/09 11:52:24;;;;;;;3.73;3.43;;;26.80;1.00;;;;;;5131797;27;20931;-61
2021/07/09 11:54:51;;;;;;;4.60;4.20;;;26.50;1.00;;;;;;5131653;27;20431;-62
2021/07/09 11:57:28;;;;;;;3.30;3.10;;;26.30;1.00;;;;;;5130944;27;20444;-62
2021/07/09 11:59:55;;;;;;;4.63;4.23;;;26.40;1.00;;;;;;5113004;27;20452;-62
2021/07/09 12:02:27;;;;;;;3.50;2.80;;;26.90;1.00;;;;;;5131715;27;20544;-63
2021/07/09 12:05:01;;;;;;;3.70;3.33;;;27.40;1.00;;;;;;5131351;27;20500;-62
2021/07/09 12:07:27;;;;;;;3.07;2.83;;;27.40;1.00;;;;;;5131575;27;20496;-61
2021/07/09 12:10:21;;;;;;;2.93;2.60;;;27.60;1.00;;;;;;5130867;27;20767;-61
2021/07/09 12:12:47;;;;;;;2.80;2.60;;;27.60;1.00;;;;;;5130958;27;20959;-62
2021/07/09 12:15:21;;;;;;;2.60;2.40;;;27.90;1.00;;;;;;5131090;27;20905;-63
2021/07/09 12:17:48;;;;;;;2.37;2.17;;;27.90;1.00;;;;;;5131603;27;20435;-62
2021/07/09 12:20:22;;;;;;;2.20;1.50;;;27.80;1.00;;;;;;5130989;27;20429;-61
2021/07/09 12:22:50;;;;;;;2.17;1.30;;;27.30;1.00;;;;;;5134318;27;20479;-61
2021/07/09 12:25:23;;;;;;;1.37;1.27;;;27.00;1.00;;;;;;5133342;27;20421;-61
2021/07/09 12:27:52;;;;;;;1.57;1.40;;;27.00;1.00;;;;;;5132784;27;20735;-62
2021/07/09 12:30:21;;;;;;;1.80;1.23;;;27.20;1.00;;;;;;5134877;27;20992;-62
2021/07/09 12:32:48;;;;;;;1.67;1.30;;;27.30;1.00;;;;;;5135177;27;20431;-64
2021/07/09 12:35:15;;;;;;;1.37;1.27;;;27.60;1.00;;;;;;5134999;27;20422;-61
2021/07/09 12:37:41;;;;;;;1.03;0.97;;;27.50;1.00;;;;;;5135293;27;20878;-62
2021/07/09 12:40:16;;;;;;;1.33;1.20;;;27.60;1.00;;;;;;5135233;27;20488;-62
2021/07/09 12:42:43;;;;;;;1.40;1.20;;;27.50;1.00;;;;;;5135017;27;20426;-61
2021/07/09 12:45:10;;;;;;;1.60;1.50;;;27.40;1.00;;;;;;5134000;27;20429;-61
2021/07/09 12:47:48;;;;;;;2.20;1.70;;;27.40;1.00;;;;;;5135098;27;20405;-61
2021/07/09 12:50:17;;;;;;;3.03;1.50;;;27.30;1.00;;;;;;5134694;27;20462;-60
2021/07/09 12:52:43;;;;;;;2.83;1.60;;;26.90;1.00;;;;;;5134923;27;20439;-62
2021/07/09 12:55:36;;;;;;;1.67;1.57;;;26.40;1.00;;;;;;5133717;27;20454;-62
2021/07/09 12:58:08;;;;;;;1.87;1.77;;;25.80;1.00;;;;;;5134821;27;20663;-61
2021/07/09 13:00:52;;;;;;;1.80;1.70;;;25.40;1.00;;;;;;5134890;27;20440;-63
2021/07/09 13:03:31;;;;;;;3.10;2.20;;;25.00;1.00;;;;;;5134134;27;20405;-60